sensor_id;sensor_type;location;lat;lon;timestamp;P1;durP1;ratioP1;P2;durP2;ratioP2
38693;SDS011;24447;43.460;25.744;2023-03-01T00:01:26;19.30;;;6.70;;
38693;SDS011;24447;43.460;25.744;2023-03-01T00:03:53;19.92;;;7.15;;
38693;SDS011;24447;43.460;25.744;2023-03-01T00:06:20;20.48;;;6.80;;
38693;SDS011;24447;43.460;25.744;2023-03-01T00:08:46;17.23;;;6.90;;
38693;SDS011;24447;43.460;25.744;2023-03-01T00:11:14;18.60;;;6.78;;
38693;SDS011;24447;43.460;25.744;2023-03-01T00:13:51;19.05;;;6.72;;
38693;SDS011;24447;43.460;25.744;2023-03-01T00:16:21;20.50;;;7.03;;
38693;SDS011;24447;43.460;25.744;2023-03-01T00:18:48;18.20;;;6.95;;
38693;SDS011;24447;43.460;25.744;2023-03-01T00:21:15;17.73;;;6.28;;
38693;SDS011;24447;43.460;25.744;2023-03-01T00:23:41;17.05;;;6.43;;
38693;SDS011;24447;43.460;25.744;2023-03-01T00:26:08;18.80;;;6.63;;
38693;SDS011;24447;43.460;25.744;2023-03-01T00:28:35;18.63;;;6.60;;
38693;SDS011;24447;43.460;25.744;2023-03-01T00:31:07;19.15;;;7.00;;
38693;SDS011;24447;43.460;25.744;2023-03-01T00:33:42;17.42;;;6.82;;
38693;SDS011;24447;43.460;25.744;2023-03-01T00:36:09;16.67;;;5.53;;
38693;SDS011;24447;43.460;25.744;2023-03-01T00:38:40;19.73;;;6.70;;
38693;SDS011;24447;43.460;25.744;2023-03-01T00:43:34;18.38;;;6.22;;
38693;SDS011;24447;43.460;25.744;2023-03-01T00:46:20;15.75;;;5.90;;
38693;SDS011;24447;43.460;25.744;2023-03-01T00:48:47;20.05;;;7.15;;
38693;SDS011;24447;43.460;25.744;2023-03-01T00:53:44;16.70;;;5.78;;
38693;SDS011;24447;43.460;25.744;2023-03-01T00:56:11;15.27;;;6.10;;
38693;SDS011;24447;43.460;25.744;2023-03-01T00:58:38;15.73;;;5.70;;
38693;SDS011;24447;43.460;25.744;2023-03-01T01:01:08;15.45;;;5.45;;
38693;SDS011;24447;43.460;25.744;2023-03-01T01:03:48;15.90;;;5.50;;
38693;SDS011;24447;43.460;25.744;2023-03-01T01:08:46;12.30;;;4.83;;
38693;SDS011;24447;43.460;25.744;2023-03-01T01:11:13;15.63;;;5.15;;
38693;SDS011;24447;43.460;25.744;2023-03-01T01:13:40;14.68;;;5.20;;
38693;SDS011;24447;43.460;25.744;2023-03-01T01:16:06;14.43;;;4.78;;
38693;SDS011;24447;43.460;25.744;2023-03-01T01:18:32;16.50;;;6.00;;
38693;SDS011;24447;43.460;25.744;2023-03-01T01:21:03;14.15;;;4.88;;
38693;SDS011;24447;43.460;25.744;2023-03-01T01:23:30;12.73;;;4.60;;
38693;SDS011;24447;43.460;25.744;2023-03-01T01:25:56;14.63;;;4.63;;
38693;SDS011;24447;43.460;25.744;2023-03-01T01:28:22;14.35;;;4.72;;
38693;SDS011;24447;43.460;25.744;2023-03-01T01:30:48;13.68;;;4.13;;
38693;SDS011;24447;43.460;25.744;2023-03-01T01:33:14;13.82;;;4.82;;
38693;SDS011;24447;43.460;25.744;2023-03-01T01:35:39;12.18;;;5.40;;
38693;SDS011;24447;43.460;25.744;2023-03-01T01:38:05;17.20;;;5.60;;
38693;SDS011;24447;43.460;25.744;2023-03-01T01:40:31;12.05;;;4.57;;
38693;SDS011;24447;43.460;25.744;2023-03-01T01:42:57;16.65;;;5.20;;
38693;SDS011;24447;43.460;25.744;2023-03-01T01:45:33;19.27;;;6.93;;
38693;SDS011;24447;43.460;25.744;2023-03-01T01:48:02;18.35;;;5.65;;
38693;SDS011;24447;43.460;25.744;2023-03-01T01:50:30;15.30;;;6.00;;
38693;SDS011;24447;43.460;25.744;2023-03-01T01:53:03;14.15;;;5.88;;
38693;SDS011;24447;43.460;25.744;2023-03-01T01:55:31;13.90;;;4.90;;
38693;SDS011;24447;43.460;25.744;2023-03-01T01:58:01;18.10;;;5.88;;
38693;SDS011;24447;43.460;25.744;2023-03-01T02:00:28;17.70;;;6.20;;
38693;SDS011;24447;43.460;25.744;2023-03-01T02:02:56;23.27;;;5.85;;
38693;SDS011;24447;43.460;25.744;2023-03-01T02:08:33;21.10;;;6.95;;
38693;SDS011;24447;43.460;25.744;2023-03-01T02:11:01;18.25;;;5.72;;
38693;SDS011;24447;43.460;25.744;2023-03-01T02:13:29;15.88;;;5.40;;
38693;SDS011;24447;43.460;25.744;2023-03-01T02:15:56;20.58;;;6.35;;
38693;SDS011;24447;43.460;25.744;2023-03-01T02:18:22;20.52;;;6.32;;
38693;SDS011;24447;43.460;25.744;2023-03-01T02:23:38;18.35;;;6.05;;
38693;SDS011;24447;43.460;25.744;2023-03-01T02:28:53;12.32;;;4.43;;
38693;SDS011;24447;43.460;25.744;2023-03-01T02:31:19;13.95;;;5.38;;
38693;SDS011;24447;43.460;25.744;2023-03-01T02:34:05;16.67;;;5.30;;
38693;SDS011;24447;43.460;25.744;2023-03-01T02:36:34;15.90;;;5.68;;
38693;SDS011;24447;43.460;25.744;2023-03-01T02:39:03;13.02;;;4.82;;
38693;SDS011;24447;43.460;25.744;2023-03-01T02:41:32;15.20;;;4.78;;
38693;SDS011;24447;43.460;25.744;2023-03-01T02:44:01;14.20;;;5.25;;
38693;SDS011;24447;43.460;25.744;2023-03-01T02:46:28;8.95;;;3.70;;
38693;SDS011;24447;43.460;25.744;2023-03-01T02:48:58;10.52;;;4.63;;
38693;SDS011;24447;43.460;25.744;2023-03-01T02:51:38;12.05;;;4.47;;
38693;SDS011;24447;43.460;25.744;2023-03-01T02:56:38;14.55;;;4.35;;
38693;SDS011;24447;43.460;25.744;2023-03-01T02:59:04;15.32;;;5.07;;
38693;SDS011;24447;43.460;25.744;2023-03-01T03:01:30;12.68;;;4.60;;
38693;SDS011;24447;43.460;25.744;2023-03-01T03:04:06;12.27;;;5.25;;
38693;SDS011;24447;43.460;25.744;2023-03-01T03:06:35;13.88;;;5.85;;
38693;SDS011;24447;43.460;25.744;2023-03-01T03:09:01;27.25;;;9.45;;
38693;SDS011;24447;43.460;25.744;2023-03-01T03:11:28;16.67;;;5.50;;
38693;SDS011;24447;43.460;25.744;2023-03-01T03:13:54;13.90;;;5.05;;
38693;SDS011;24447;43.460;25.744;2023-03-01T03:16:21;11.10;;;5.05;;
38693;SDS011;24447;43.460;25.744;2023-03-01T03:18:47;12.95;;;4.22;;
38693;SDS011;24447;43.460;25.744;2023-03-01T03:21:13;12.13;;;4.10;;
38693;SDS011;24447;43.460;25.744;2023-03-01T03:23:39;12.32;;;4.72;;
38693;SDS011;24447;43.460;25.744;2023-03-01T03:26:05;10.00;;;4.35;;
38693;SDS011;24447;43.460;25.744;2023-03-01T03:28:32;13.00;;;5.03;;
38693;SDS011;24447;43.460;25.744;2023-03-01T03:30:59;13.63;;;5.50;;
38693;SDS011;24447;43.460;25.744;2023-03-01T03:33:31;10.85;;;4.45;;
38693;SDS011;24447;43.460;25.744;2023-03-01T03:35:57;13.43;;;4.32;;
38693;SDS011;24447;43.460;25.744;2023-03-01T03:38:23;11.35;;;5.00;;
38693;SDS011;24447;43.460;25.744;2023-03-01T03:40:55;12.98;;;5.32;;
38693;SDS011;24447;43.460;25.744;2023-03-01T03:43:29;15.50;;;5.50;;
38693;SDS011;24447;43.460;25.744;2023-03-01T03:48:42;9.68;;;3.97;;
38693;SDS011;24447;43.460;25.744;2023-03-01T03:51:16;9.35;;;4.13;;
38693;SDS011;24447;43.460;25.744;2023-03-01T03:53:43;9.35;;;3.58;;
38693;SDS011;24447;43.460;25.744;2023-03-01T03:56:10;6.20;;;3.10;;
38693;SDS011;24447;43.460;25.744;2023-03-01T03:58:55;7.80;;;3.53;;
38693;SDS011;24447;43.460;25.744;2023-03-01T04:01:21;11.73;;;4.40;;
38693;SDS011;24447;43.460;25.744;2023-03-01T04:03:47;10.23;;;3.97;;
38693;SDS011;24447;43.460;25.744;2023-03-01T04:06:13;12.77;;;4.20;;
38693;SDS011;24447;43.460;25.744;2023-03-01T04:08:39;9.65;;;4.07;;
38693;SDS011;24447;43.460;25.744;2023-03-01T04:11:06;9.98;;;4.05;;
38693;SDS011;24447;43.460;25.744;2023-03-01T04:13:58;13.85;;;4.72;;
38693;SDS011;24447;43.460;25.744;2023-03-01T04:16:25;8.70;;;3.70;;
38693;SDS011;24447;43.460;25.744;2023-03-01T04:18:51;10.80;;;3.83;;
38693;SDS011;24447;43.460;25.744;2023-03-01T04:21:21;13.87;;;3.97;;
38693;SDS011;24447;43.460;25.744;2023-03-01T04:23:47;7.53;;;3.65;;
38693;SDS011;24447;43.460;25.744;2023-03-01T04:26:17;8.13;;;3.22;;
38693;SDS011;24447;43.460;25.744;2023-03-01T04:28:45;10.20;;;3.67;;
38693;SDS011;24447;43.460;25.744;2023-03-01T04:31:14;8.75;;;3.47;;
38693;SDS011;24447;43.460;25.744;2023-03-01T04:36:09;8.57;;;3.78;;
38693;SDS011;24447;43.460;25.744;2023-03-01T04:38:37;7.90;;;3.20;;
38693;SDS011;24447;43.460;25.744;2023-03-01T04:41:07;9.10;;;3.53;;
38693;SDS011;24447;43.460;25.744;2023-03-01T04:43:35;12.02;;;3.90;;
38693;SDS011;24447;43.460;25.744;2023-03-01T04:46:02;6.85;;;2.70;;
38693;SDS011;24447;43.460;25.744;2023-03-01T04:48:29;10.80;;;4.20;;
38693;SDS011;24447;43.460;25.744;2023-03-01T04:50:56;11.38;;;4.35;;
38693;SDS011;24447;43.460;25.744;2023-03-01T04:53:23;10.05;;;5.07;;
38693;SDS011;24447;43.460;25.744;2023-03-01T04:55:49;10.77;;;4.88;;
38693;SDS011;24447;43.460;25.744;2023-03-01T04:58:15;14.98;;;4.30;;
38693;SDS011;24447;43.460;25.744;2023-03-01T05:00:41;11.13;;;3.92;;
38693;SDS011;24447;43.460;25.744;2023-03-01T05:03:08;9.77;;;3.67;;
38693;SDS011;24447;43.460;25.744;2023-03-01T05:05:35;9.20;;;3.83;;
38693;SDS011;24447;43.460;25.744;2023-03-01T05:08:04;15.75;;;6.47;;
38693;SDS011;24447;43.460;25.744;2023-03-01T05:10:32;16.73;;;6.40;;
38693;SDS011;24447;43.460;25.744;2023-03-01T05:13:00;24.45;;;9.88;;
38693;SDS011;24447;43.460;25.744;2023-03-01T05:15:28;24.48;;;9.65;;
38693;SDS011;24447;43.460;25.744;2023-03-01T05:17:55;24.10;;;9.68;;
38693;SDS011;24447;43.460;25.744;2023-03-01T05:20:24;18.15;;;6.68;;
38693;SDS011;24447;43.460;25.744;2023-03-01T05:22:51;13.43;;;4.95;;
38693;SDS011;24447;43.460;25.744;2023-03-01T05:25:17;11.40;;;4.82;;
38693;SDS011;24447;43.460;25.744;2023-03-01T05:27:43;11.15;;;4.78;;
38693;SDS011;24447;43.460;25.744;2023-03-01T05:30:10;11.82;;;3.47;;
38693;SDS011;24447;43.460;25.744;2023-03-01T05:32:43;10.07;;;4.38;;
38693;SDS011;24447;43.460;25.744;2023-03-01T05:35:14;10.85;;;4.15;;
38693;SDS011;24447;43.460;25.744;2023-03-01T05:37:42;12.18;;;4.82;;
38693;SDS011;24447;43.460;25.744;2023-03-01T05:40:10;11.52;;;4.32;;
38693;SDS011;24447;43.460;25.744;2023-03-01T05:42:44;10.82;;;4.40;;
38693;SDS011;24447;43.460;25.744;2023-03-01T05:45:14;7.57;;;3.58;;
38693;SDS011;24447;43.460;25.744;2023-03-01T05:47:41;13.10;;;4.38;;
38693;SDS011;24447;43.460;25.744;2023-03-01T05:50:16;20.25;;;6.63;;
38693;SDS011;24447;43.460;25.744;2023-03-01T05:52:45;12.18;;;4.65;;
38693;SDS011;24447;43.460;25.744;2023-03-01T05:55:12;13.85;;;4.60;;
38693;SDS011;24447;43.460;25.744;2023-03-01T05:57:37;11.65;;;4.63;;
38693;SDS011;24447;43.460;25.744;2023-03-01T06:00:03;10.50;;;3.72;;
38693;SDS011;24447;43.460;25.744;2023-03-01T06:02:31;14.05;;;5.43;;
38693;SDS011;24447;43.460;25.744;2023-03-01T06:04:57;13.30;;;5.53;;
38693;SDS011;24447;43.460;25.744;2023-03-01T06:07:23;10.85;;;4.28;;
38693;SDS011;24447;43.460;25.744;2023-03-01T06:09:49;11.88;;;4.47;;
38693;SDS011;24447;43.460;25.744;2023-03-01T06:12:15;13.38;;;4.82;;
38693;SDS011;24447;43.460;25.744;2023-03-01T06:14:40;14.07;;;5.63;;
38693;SDS011;24447;43.460;25.744;2023-03-01T06:17:06;14.70;;;4.63;;
38693;SDS011;24447;43.460;25.744;2023-03-01T06:19:32;10.70;;;3.63;;
38693;SDS011;24447;43.460;25.744;2023-03-01T06:21:58;12.23;;;4.40;;
38693;SDS011;24447;43.460;25.744;2023-03-01T06:24:24;14.77;;;5.32;;
38693;SDS011;24447;43.460;25.744;2023-03-01T06:26:52;15.27;;;5.63;;
38693;SDS011;24447;43.460;25.744;2023-03-01T06:29:18;12.90;;;4.80;;
38693;SDS011;24447;43.460;25.744;2023-03-01T06:31:44;13.05;;;4.93;;
38693;SDS011;24447;43.460;25.744;2023-03-01T06:34:10;14.15;;;5.45;;
38693;SDS011;24447;43.460;25.744;2023-03-01T06:36:39;11.77;;;4.55;;
38693;SDS011;24447;43.460;25.744;2023-03-01T06:39:05;10.75;;;4.63;;
38693;SDS011;24447;43.460;25.744;2023-03-01T06:41:31;11.95;;;5.32;;
38693;SDS011;24447;43.460;25.744;2023-03-01T06:43:58;12.75;;;5.15;;
38693;SDS011;24447;43.460;25.744;2023-03-01T06:46:25;15.32;;;6.13;;
38693;SDS011;24447;43.460;25.744;2023-03-01T06:48:51;46.72;;;16.23;;
38693;SDS011;24447;43.460;25.744;2023-03-01T06:51:17;20.88;;;6.88;;
38693;SDS011;24447;43.460;25.744;2023-03-01T06:53:42;16.77;;;6.63;;
38693;SDS011;24447;43.460;25.744;2023-03-01T06:56:08;14.88;;;5.93;;
38693;SDS011;24447;43.460;25.744;2023-03-01T06:58:34;14.80;;;5.47;;
38693;SDS011;24447;43.460;25.744;2023-03-01T07:01:00;15.10;;;4.82;;
38693;SDS011;24447;43.460;25.744;2023-03-01T07:03:31;13.52;;;6.00;;
38693;SDS011;24447;43.460;25.744;2023-03-01T07:05:57;14.93;;;5.32;;
38693;SDS011;24447;43.460;25.744;2023-03-01T07:08:23;18.00;;;6.47;;
38693;SDS011;24447;43.460;25.744;2023-03-01T07:10:54;18.65;;;6.05;;
38693;SDS011;24447;43.460;25.744;2023-03-01T07:13:20;12.95;;;5.03;;
38693;SDS011;24447;43.460;25.744;2023-03-01T07:15:46;16.75;;;6.60;;
38693;SDS011;24447;43.460;25.744;2023-03-01T07:18:12;17.77;;;6.57;;
38693;SDS011;24447;43.460;25.744;2023-03-01T07:20:38;17.70;;;6.70;;
38693;SDS011;24447;43.460;25.744;2023-03-01T07:23:05;16.48;;;5.80;;
38693;SDS011;24447;43.460;25.744;2023-03-01T07:25:31;14.38;;;4.90;;
38693;SDS011;24447;43.460;25.744;2023-03-01T07:27:58;11.98;;;4.80;;
38693;SDS011;24447;43.460;25.744;2023-03-01T07:30:24;16.27;;;5.28;;
38693;SDS011;24447;43.460;25.744;2023-03-01T07:32:52;16.48;;;5.72;;
38693;SDS011;24447;43.460;25.744;2023-03-01T07:35:18;14.82;;;5.18;;
38693;SDS011;24447;43.460;25.744;2023-03-01T07:37:44;15.02;;;5.43;;
38693;SDS011;24447;43.460;25.744;2023-03-01T07:40:10;13.43;;;5.05;;
38693;SDS011;24447;43.460;25.744;2023-03-01T07:42:37;16.58;;;6.95;;
38693;SDS011;24447;43.460;25.744;2023-03-01T07:45:03;14.18;;;5.32;;
38693;SDS011;24447;43.460;25.744;2023-03-01T07:47:30;17.55;;;5.85;;
38693;SDS011;24447;43.460;25.744;2023-03-01T07:49:56;17.55;;;6.25;;
38693;SDS011;24447;43.460;25.744;2023-03-01T07:52:22;13.07;;;5.60;;
38693;SDS011;24447;43.460;25.744;2023-03-01T07:54:48;16.48;;;5.03;;
38693;SDS011;24447;43.460;25.744;2023-03-01T07:57:17;15.98;;;5.75;;
38693;SDS011;24447;43.460;25.744;2023-03-01T07:59:43;13.65;;;5.57;;
38693;SDS011;24447;43.460;25.744;2023-03-01T08:02:09;16.20;;;6.47;;
38693;SDS011;24447;43.460;25.744;2023-03-01T08:04:36;17.75;;;6.75;;
38693;SDS011;24447;43.460;25.744;2023-03-01T08:07:03;13.93;;;4.78;;
38693;SDS011;24447;43.460;25.744;2023-03-01T08:09:30;17.55;;;6.25;;
38693;SDS011;24447;43.460;25.744;2023-03-01T08:11:56;20.15;;;5.15;;
38693;SDS011;24447;43.460;25.744;2023-03-01T08:14:26;12.90;;;5.20;;
38693;SDS011;24447;43.460;25.744;2023-03-01T08:16:52;17.77;;;5.53;;
38693;SDS011;24447;43.460;25.744;2023-03-01T08:19:17;13.48;;;5.53;;
38693;SDS011;24447;43.460;25.744;2023-03-01T08:21:43;17.42;;;6.25;;
38693;SDS011;24447;43.460;25.744;2023-03-01T08:24:09;16.92;;;6.20;;
38693;SDS011;24447;43.460;25.744;2023-03-01T08:26:35;19.33;;;7.85;;
38693;SDS011;24447;43.460;25.744;2023-03-01T08:29:02;17.05;;;5.65;;
38693;SDS011;24447;43.460;25.744;2023-03-01T08:31:29;18.08;;;7.22;;
38693;SDS011;24447;43.460;25.744;2023-03-01T08:33:57;11.75;;;4.72;;
38693;SDS011;24447;43.460;25.744;2023-03-01T08:36:46;14.35;;;5.72;;
38693;SDS011;24447;43.460;25.744;2023-03-01T08:39:12;15.40;;;4.82;;
38693;SDS011;24447;43.460;25.744;2023-03-01T08:41:43;19.40;;;7.32;;
38693;SDS011;24447;43.460;25.744;2023-03-01T08:44:09;15.98;;;6.35;;
38693;SDS011;24447;43.460;25.744;2023-03-01T08:46:37;16.50;;;6.30;;
38693;SDS011;24447;43.460;25.744;2023-03-01T08:49:06;13.85;;;5.13;;
38693;SDS011;24447;43.460;25.744;2023-03-01T08:51:39;15.15;;;5.40;;
38693;SDS011;24447;43.460;25.744;2023-03-01T08:54:07;17.70;;;6.35;;
38693;SDS011;24447;43.460;25.744;2023-03-01T08:56:35;18.23;;;6.25;;
38693;SDS011;24447;43.460;25.744;2023-03-01T08:59:02;21.40;;;8.35;;
38693;SDS011;24447;43.460;25.744;2023-03-01T09:01:28;15.43;;;5.72;;
38693;SDS011;24447;43.460;25.744;2023-03-01T09:03:54;17.42;;;6.53;;
38693;SDS011;24447;43.460;25.744;2023-03-01T09:06:19;18.40;;;6.82;;
38693;SDS011;24447;43.460;25.744;2023-03-01T09:08:46;13.60;;;5.70;;
38693;SDS011;24447;43.460;25.744;2023-03-01T09:11:14;19.83;;;5.47;;
38693;SDS011;24447;43.460;25.744;2023-03-01T09:13:43;15.63;;;6.53;;
38693;SDS011;24447;43.460;25.744;2023-03-01T09:16:10;14.35;;;6.00;;
38693;SDS011;24447;43.460;25.744;2023-03-01T09:18:36;18.63;;;6.55;;
38693;SDS011;24447;43.460;25.744;2023-03-01T09:21:13;15.98;;;5.82;;
38693;SDS011;24447;43.460;25.744;2023-03-01T09:23:41;17.30;;;6.68;;
38693;SDS011;24447;43.460;25.744;2023-03-01T09:26:09;15.60;;;6.25;;
38693;SDS011;24447;43.460;25.744;2023-03-01T09:28:37;16.33;;;6.07;;
38693;SDS011;24447;43.460;25.744;2023-03-01T09:31:05;18.85;;;5.65;;
38693;SDS011;24447;43.460;25.744;2023-03-01T09:33:31;17.85;;;7.10;;
38693;SDS011;24447;43.460;25.744;2023-03-01T09:35:58;23.88;;;7.40;;
38693;SDS011;24447;43.460;25.744;2023-03-01T09:38:25;21.85;;;7.97;;
38693;SDS011;24447;43.460;25.744;2023-03-01T09:40:52;22.30;;;8.40;;
38693;SDS011;24447;43.460;25.744;2023-03-01T09:43:20;24.95;;;9.38;;
38693;SDS011;24447;43.460;25.744;2023-03-01T09:45:47;17.98;;;7.05;;
38693;SDS011;24447;43.460;25.744;2023-03-01T09:48:18;21.58;;;7.80;;
38693;SDS011;24447;43.460;25.744;2023-03-01T09:50:47;21.88;;;9.02;;
38693;SDS011;24447;43.460;25.744;2023-03-01T09:53:15;19.20;;;7.60;;
38693;SDS011;24447;43.460;25.744;2023-03-01T09:55:48;18.17;;;6.80;;
38693;SDS011;24447;43.460;25.744;2023-03-01T10:04:13;20.83;;;7.28;;
38693;SDS011;24447;43.460;25.744;2023-03-01T10:09:35;39.00;;;7.45;;
38693;SDS011;24447;43.460;25.744;2023-03-01T10:12:10;24.88;;;6.80;;
38693;SDS011;24447;43.460;25.744;2023-03-01T10:14:48;19.88;;;7.07;;
38693;SDS011;24447;43.460;25.744;2023-03-01T10:22:44;20.17;;;8.02;;
38693;SDS011;24447;43.460;25.744;2023-03-01T10:25:15;19.48;;;6.80;;
38693;SDS011;24447;43.460;25.744;2023-03-01T10:27:51;18.67;;;7.75;;
38693;SDS011;24447;43.460;25.744;2023-03-01T10:33:08;25.75;;;7.25;;
38693;SDS011;24447;43.460;25.744;2023-03-01T10:35:41;18.80;;;7.68;;
38693;SDS011;24447;43.460;25.744;2023-03-01T10:38:11;25.52;;;9.02;;
38693;SDS011;24447;43.460;25.744;2023-03-01T10:41:00;20.58;;;6.47;;
38693;SDS011;24447;43.460;25.744;2023-03-01T10:43:44;24.15;;;8.05;;
38693;SDS011;24447;43.460;25.744;2023-03-01T10:46:25;18.02;;;5.85;;
38693;SDS011;24447;43.460;25.744;2023-03-01T10:49:17;22.35;;;6.97;;
38693;SDS011;24447;43.460;25.744;2023-03-01T10:51:44;43.90;;;9.73;;
38693;SDS011;24447;43.460;25.744;2023-03-01T10:54:22;18.13;;;6.88;;
38693;SDS011;24447;43.460;25.744;2023-03-01T10:56:53;15.52;;;5.47;;
38693;SDS011;24447;43.460;25.744;2023-03-01T10:59:36;26.27;;;8.45;;
38693;SDS011;24447;43.460;25.744;2023-03-01T11:04:39;14.75;;;6.03;;
38693;SDS011;24447;43.460;25.744;2023-03-01T11:07:05;18.00;;;6.32;;
38693;SDS011;24447;43.460;25.744;2023-03-01T11:09:31;21.48;;;7.35;;
38693;SDS011;24447;43.460;25.744;2023-03-01T11:12:05;19.60;;;7.18;;
38693;SDS011;24447;43.460;25.744;2023-03-01T11:14:38;16.58;;;6.47;;
38693;SDS011;24447;43.460;25.744;2023-03-01T11:17:12;14.95;;;5.53;;
38693;SDS011;24447;43.460;25.744;2023-03-01T11:22:49;18.73;;;7.57;;
38693;SDS011;24447;43.460;25.744;2023-03-01T11:25:17;18.88;;;6.60;;
38693;SDS011;24447;43.460;25.744;2023-03-01T11:27:44;21.42;;;8.63;;
38693;SDS011;24447;43.460;25.744;2023-03-01T11:32:47;42.85;;;8.40;;
38693;SDS011;24447;43.460;25.744;2023-03-01T11:35:21;13.38;;;5.43;;
38693;SDS011;24447;43.460;25.744;2023-03-01T11:40:29;17.80;;;6.05;;
38693;SDS011;24447;43.460;25.744;2023-03-01T11:50:50;18.95;;;6.15;;
38693;SDS011;24447;43.460;25.744;2023-03-01T11:58:57;21.48;;;7.28;;
38693;SDS011;24447;43.460;25.744;2023-03-01T12:07:00;16.10;;;5.65;;
38693;SDS011;24447;43.460;25.744;2023-03-01T12:15:09;20.70;;;6.28;;
38693;SDS011;24447;43.460;25.744;2023-03-01T12:20:21;23.42;;;7.60;;
38693;SDS011;24447;43.460;25.744;2023-03-01T12:28:31;18.40;;;5.85;;
38693;SDS011;24447;43.460;25.744;2023-03-01T12:34:22;25.83;;;6.45;;
38693;SDS011;24447;43.460;25.744;2023-03-01T12:40:01;23.13;;;7.18;;
38693;SDS011;24447;43.460;25.744;2023-03-01T12:48:29;20.92;;;7.65;;
38693;SDS011;24447;43.460;25.744;2023-03-01T12:51:07;18.73;;;6.50;;
38693;SDS011;24447;43.460;25.744;2023-03-01T12:56:44;22.48;;;8.23;;
38693;SDS011;24447;43.460;25.744;2023-03-01T13:01:54;15.10;;;6.80;;
38693;SDS011;24447;43.460;25.744;2023-03-01T13:04:33;19.55;;;7.70;;
38693;SDS011;24447;43.460;25.744;2023-03-01T13:14:44;16.23;;;6.13;;
38693;SDS011;24447;43.460;25.744;2023-03-01T13:16:49;20.00;;;7.10;;
38693;SDS011;24447;43.460;25.744;2023-03-01T13:19:17;19.70;;;7.70;;
38693;SDS011;24447;43.460;25.744;2023-03-01T13:21:45;21.25;;;8.88;;
38693;SDS011;24447;43.460;25.744;2023-03-01T13:29:48;22.40;;;7.72;;
38693;SDS011;24447;43.460;25.744;2023-03-01T13:32:21;30.20;;;6.55;;
38693;SDS011;24447;43.460;25.744;2023-03-01T13:37:42;21.75;;;8.25;;
38693;SDS011;24447;43.460;25.744;2023-03-01T13:42:51;25.02;;;9.45;;
38693;SDS011;24447;43.460;25.744;2023-03-01T13:45:24;17.40;;;7.38;;
38693;SDS011;24447;43.460;25.744;2023-03-01T13:48:18;20.63;;;7.57;;
38693;SDS011;24447;43.460;25.744;2023-03-01T13:50:59;19.25;;;6.70;;
38693;SDS011;24447;43.460;25.744;2023-03-01T13:53:33;22.92;;;8.45;;
38693;SDS011;24447;43.460;25.744;2023-03-01T13:56:02;21.20;;;7.88;;
38693;SDS011;24447;43.460;25.744;2023-03-01T13:58:43;21.98;;;7.80;;
38693;SDS011;24447;43.460;25.744;2023-03-01T14:01:29;22.33;;;8.65;;
38693;SDS011;24447;43.460;25.744;2023-03-01T14:03:56;21.52;;;8.27;;
38693;SDS011;24447;43.460;25.744;2023-03-01T14:06:26;22.25;;;8.10;;
38693;SDS011;24447;43.460;25.744;2023-03-01T14:09:05;17.25;;;6.45;;
38693;SDS011;24447;43.460;25.744;2023-03-01T14:19:20;30.67;;;11.45;;
38693;SDS011;24447;43.460;25.744;2023-03-01T14:21:59;30.73;;;11.93;;
38693;SDS011;24447;43.460;25.744;2023-03-01T14:24:39;23.58;;;8.77;;
38693;SDS011;24447;43.460;25.744;2023-03-01T14:27:11;21.48;;;6.72;;
38693;SDS011;24447;43.460;25.744;2023-03-01T14:29:38;22.05;;;8.20;;
38693;SDS011;24447;43.460;25.744;2023-03-01T14:34:53;21.17;;;7.50;;
38693;SDS011;24447;43.460;25.744;2023-03-01T14:37:24;26.83;;;10.48;;
38693;SDS011;24447;43.460;25.744;2023-03-01T14:39:54;35.05;;;9.02;;
38693;SDS011;24447;43.460;25.744;2023-03-01T14:42:21;29.00;;;11.60;;
38693;SDS011;24447;43.460;25.744;2023-03-01T14:44:49;38.85;;;15.57;;
38693;SDS011;24447;43.460;25.744;2023-03-01T14:47:29;29.05;;;12.07;;
38693;SDS011;24447;43.460;25.744;2023-03-01T14:52:44;23.40;;;8.05;;
38693;SDS011;24447;43.460;25.744;2023-03-01T14:55:15;33.58;;;12.10;;
38693;SDS011;24447;43.460;25.744;2023-03-01T14:57:43;26.67;;;11.63;;
38693;SDS011;24447;43.460;25.744;2023-03-01T15:00:12;23.60;;;8.32;;
38693;SDS011;24447;43.460;25.744;2023-03-01T15:02:45;21.77;;;7.90;;
38693;SDS011;24447;43.460;25.744;2023-03-01T15:05:13;27.30;;;10.27;;
38693;SDS011;24447;43.460;25.744;2023-03-01T15:07:40;25.23;;;9.70;;
38693;SDS011;24447;43.460;25.744;2023-03-01T15:10:19;30.20;;;11.43;;
38693;SDS011;24447;43.460;25.744;2023-03-01T15:12:49;28.70;;;11.02;;
38693;SDS011;24447;43.460;25.744;2023-03-01T15:15:22;27.40;;;11.00;;
38693;SDS011;24447;43.460;25.744;2023-03-01T15:17:59;26.35;;;10.52;;
38693;SDS011;24447;43.460;25.744;2023-03-01T15:20:28;25.55;;;10.60;;
38693;SDS011;24447;43.460;25.744;2023-03-01T15:22:56;29.80;;;11.05;;
38693;SDS011;24447;43.460;25.744;2023-03-01T15:25:24;24.80;;;8.98;;
38693;SDS011;24447;43.460;25.744;2023-03-01T15:27:52;22.50;;;9.05;;
38693;SDS011;24447;43.460;25.744;2023-03-01T15:30:21;36.53;;;12.63;;
38693;SDS011;24447;43.460;25.744;2023-03-01T15:32:48;24.33;;;7.22;;
38693;SDS011;24447;43.460;25.744;2023-03-01T15:35:53;20.65;;;8.40;;
38693;SDS011;24447;43.460;25.744;2023-03-01T15:41:20;23.33;;;9.63;;
38693;SDS011;24447;43.460;25.744;2023-03-01T15:43:50;24.73;;;8.15;;
38693;SDS011;24447;43.460;25.744;2023-03-01T15:48:58;22.73;;;9.63;;
38693;SDS011;24447;43.460;25.744;2023-03-01T15:51:30;24.45;;;10.73;;
38693;SDS011;24447;43.460;25.744;2023-03-01T15:53:58;39.15;;;12.82;;
38693;SDS011;24447;43.460;25.744;2023-03-01T15:56:26;33.25;;;12.73;;
38693;SDS011;24447;43.460;25.744;2023-03-01T15:58:52;38.95;;;15.77;;
38693;SDS011;24447;43.460;25.744;2023-03-01T16:01:18;32.85;;;14.10;;
38693;SDS011;24447;43.460;25.744;2023-03-01T16:03:44;35.97;;;13.93;;
38693;SDS011;24447;43.460;25.744;2023-03-01T16:06:10;31.42;;;13.13;;
38693;SDS011;24447;43.460;25.744;2023-03-01T16:08:37;28.75;;;12.95;;
38693;SDS011;24447;43.460;25.744;2023-03-01T16:11:04;35.22;;;14.27;;
38693;SDS011;24447;43.460;25.744;2023-03-01T16:13:31;39.25;;;17.42;;
38693;SDS011;24447;43.460;25.744;2023-03-01T16:15:58;37.53;;;15.40;;
38693;SDS011;24447;43.460;25.744;2023-03-01T16:18:24;45.00;;;15.77;;
38693;SDS011;24447;43.460;25.744;2023-03-01T16:20:50;36.10;;;13.20;;
38693;SDS011;24447;43.460;25.744;2023-03-01T16:23:15;34.75;;;17.17;;
38693;SDS011;24447;43.460;25.744;2023-03-01T16:25:41;44.00;;;19.63;;
38693;SDS011;24447;43.460;25.744;2023-03-01T16:28:07;37.72;;;17.67;;
38693;SDS011;24447;43.460;25.744;2023-03-01T16:30:35;31.77;;;15.70;;
38693;SDS011;24447;43.460;25.744;2023-03-01T16:33:01;34.50;;;17.73;;
38693;SDS011;24447;43.460;25.744;2023-03-01T16:35:31;30.65;;;11.65;;
38693;SDS011;24447;43.460;25.744;2023-03-01T16:37:57;25.05;;;9.63;;
38693;SDS011;24447;43.460;25.744;2023-03-01T16:40:28;27.90;;;10.38;;
38693;SDS011;24447;43.460;25.744;2023-03-01T16:42:55;25.75;;;10.35;;
38693;SDS011;24447;43.460;25.744;2023-03-01T16:45:35;41.00;;;14.98;;
38693;SDS011;24447;43.460;25.744;2023-03-01T16:48:02;30.50;;;12.75;;
38693;SDS011;24447;43.460;25.744;2023-03-01T16:50:28;32.40;;;14.18;;
38693;SDS011;24447;43.460;25.744;2023-03-01T16:52:54;38.58;;;15.00;;